Overview Statistics Trail Chart Weather Telemetry Raw packets
 

This is the latest recevied weather packets stored in our database for station/object XE2RCS-1. If no packets are shown the sender has not sent any weather packets the latest 10 day(s).

<< 2 3 4 5 6 7 8 >>
Time Temp. Humidity Pressure Rain* Wind** Luminosity Snow
1788622922 24.44° C 51% 1015 hPa 0 mm - - -
1788622321 24.44° C 54% 1015 hPa 0 mm - - -
1788621721 23.89° C 55% 1015 hPa 0 mm - - -
1788621120 23.89° C 55% 1015 hPa 0 mm - - -
1788620519 24.44° C 54% 1015 hPa 0 mm - - -
1788619919 25.56° C 46% 1015 hPa 0 mm - - -
1788619318 22.78° C 85% 1016 hPa 0 mm - - -
1788618718 22.78° C 85% 1016 hPa 0 mm - - -
1788618117 22.78° C 69% 1019 hPa 0 mm - - -
1788617516 22.78° C 69% 1019 hPa 0 mm - - -
1788616916 21.67° C 61% 1017 hPa 0 mm - - -
1788616315 20.56° C 62% 1017 hPa 0 mm - - -
1788615714 21.11° C 76% 1016 hPa 0 mm - - -
1788615114 20° C 76% 1017 hPa 0 mm - - -
1788614513 20° C 76% 1016 hPa 0 mm - - -
1788613913 20° C 74% 1016 hPa 0 mm - - -
1788613312 20° C 65% 1016 hPa 0 mm - - -
1788612711 19.44° C 65% 1016 hPa 0 mm - - -
1788612111 19.44° C 69% 1016 hPa 0 mm - - -
1788611510 19.44° C 67% 1016 hPa 0 mm - - -
1788610909 18.89° C 68% 1018 hPa 0 mm - - -
1788610309 19.44° C 67% 1018 hPa 0 mm - - -
1788609708 20° C 65% 1016 hPa 0 mm - - -
1788609108 20° C 61% 1016 hPa 0 mm - - -
1788608507 20° C 62% 1016 hPa 0 mm - - -

* Rain latest hour (hover to see other rain measurements)
** Current wind speed in m/s (hover to see current wind gust speed)